This is the latest recevied weather packets stored in our database for station/object N5ZPR. If no packets are shown the sender has not sent any weather packets the latest 10 day(s).
| Time | Temp. | Humidity | Pressure | Rain* | Wind** | Luminosity | Snow |
|---|---|---|---|---|---|---|---|
| 1777234204 | 28.33° C | 75% | 1005.1 hPa | 0 mm | - | - | - |
| 1777233003 | 28.33° C | 74% | 1005.1 hPa | 0 mm | - | - | - |
| 1777232403 | 27.78° C | 76% | 1005.1 hPa | 0 mm | - | - | - |
| 1777230603 | 27.22° C | 78% | 1005.6 hPa | 0 mm | - | - | - |
| 1777228803 | 26.11° C | 80% | 1006 hPa | 0 mm | - | - | - |
| 1777224604 | 25° C | 84% | 1006.8 hPa | 0 mm | - | - | - |
| 1777222203 | 23.89° C | 86% | 1006.8 hPa | 0 mm | - | - | - |
| 1777213204 | 23.33° C | 90% | 1006.6 hPa | 0 mm | - | - | - |
| 1777206603 | 22.22° C | 94% | 1005.3 hPa | 0 mm | - | - | - |
| 1777201803 | 22.22° C | 94% | 1004.4 hPa | 0 mm | - | - | - |
| 1777200003 | 22.22° C | 94% | 1004.4 hPa | 0 mm | - | - | - |
| 1777192803 | 21.11° C | 92% | 1003.8 hPa | 0 mm | - | - | - |
| 1777187404 | 21.11° C | 91% | 1004.1 hPa | 0 mm | - | - | - |
| 1777186204 | 20.56° C | 91% | 1003.9 hPa | 1.02 mm | - | - | - |
| 1777182003 | 21.11° C | 87% | 1005.4 hPa | 5.59 mm | - | - | - |
| 1777178403 | 23.89° C | 89% | 1003.7 hPa | 2.29 mm | - | - | - |
| 1777177803 | 24.44° C | 88% | 1003.5 hPa | 1.52 mm | - | - | - |
| 1777162804 | 28.89° C | 66% | 1001.9 hPa | 0 mm | - | - | - |
| 1777159804 | 30° C | 65% | 1002 hPa | 0 mm | - | - | - |
| 1777159204 | 30° C | 65% | 1002 hPa | 0 mm | - | - | - |
| 1777143604 | 30° C | 68% | 1004.1 hPa | 0 mm | - | - | - |
| 1777142404 | 29.44° C | 70% | 1004.1 hPa | 0 mm | - | - | - |
| 1777139404 | 28.89° C | 71% | 1005 hPa | 0 mm | - | - | - |
| 1777137004 | 28.33° C | 72% | 1005.3 hPa | 0 mm | - | - | - |
| 1777134603 | 26.67° C | 77% | 1005.3 hPa | 0 mm | - | - | - |
* Rain latest hour (hover to see other rain measurements)
** Current wind speed in m/s (hover to see current wind gust speed)